Главная страница
METAR-TAF:

METAR-TAF

Аэропорты :

Гардермуэн

Осло, Норвегия

широта: 60-12N, долгота: 011-05E, высота над уровнем моря: 208 м

Текущие метеонаблюдения

Эта сводка был подготовлена 32 минут назад, в 09:20 UTC
Ветер 13 Узел от северный
Температура 2°C
Влажность 47%
Давление 1015 hPa
Видимость 10 км и более
Нет облачности ниже 1500 м, и нет кучево-дождевой облачности

METAR: ENGM 250920Z 36013KT CAVOK 02/M08 Q1015 NOSIG

Время: 10:52 (09:52 UTC)

Прогноз

Прогноз действительный с 25-го 06 UTC до 26-го 06 UTC
Ветер 12 Узел от северный
Видимость 10 км и более
Нет облачности ниже 1500 м, и нет кучево-дождевой облачности
временами
С 25-го 06 UTC до 25-го 11 UTC
Ветер 15 Узел от северный с порывами до 25 Узел
изменения
С 25-го 14 UTC до 25-го 16 UTC
Ветер 5 Узел переменных направлений

TAF: ENGM 2506/2606 36012KT CAVOK TEMPO 2506/2511 36015G25KT BECMG 2514/2516 VRB05KT

Метеонаблюдения и прогнозы для более 4000 аэропортов (сводки METAR и TAF).

Имеющиеся станции представлены на карте желтыми и красными точками.

Чтобы увидеть название станции, наведите на нее мышь.

Затем щелкните, чтобы увидеть метеонаблюдения и метеопрогнозы.

Управление картой: чтобы увеличить масштаб, щелкните зеленые кнопки с черным крестиком; чтобы уменьшить масштаб, щелкните зеленую кнопку с тире; для просмотра соседних карт щелкайте зеленые стрелки.


METAR-TAF: